createdAt,value
2022-10-12T00:00:02.756Z,2.75
2022-10-12T00:05:02.380Z,2.43
2022-10-12T00:10:03.121Z,2.24
2022-10-12T00:15:02.766Z,1.82
2022-10-12T00:20:02.431Z,1.48
2022-10-12T00:25:03.425Z,1.36
2022-10-12T00:30:05.250Z,1.52
2022-10-12T00:35:02.970Z,1.79
2022-10-12T00:40:03.394Z,2.15
2022-10-12T00:45:03.062Z,2.11
2022-10-12T00:50:02.654Z,2.2
2022-10-12T00:55:04.233Z,2.61
2022-10-12T01:00:02.828Z,3.03
2022-10-12T01:05:02.604Z,2.72
2022-10-12T01:10:03.156Z,2.51
2022-10-12T01:15:02.681Z,2.37
2022-10-12T01:20:03.466Z,2.66
2022-10-12T01:25:02.958Z,2.77
2022-10-12T01:30:02.629Z,2.31
2022-10-12T01:35:03.106Z,1.82
2022-10-12T01:40:02.732Z,1.72
2022-10-12T01:45:02.715Z,1.49
2022-10-12T01:50:02.740Z,1.74
2022-10-12T01:55:03.695Z,1.79
2022-10-12T02:00:02.934Z,1.9
2022-10-12T02:05:02.641Z,1.99
2022-10-12T02:10:03.312Z,2.19
2022-10-12T02:15:02.974Z,2.54
2022-10-12T02:20:02.746Z,2.19
2022-10-12T02:25:02.485Z,1.87
2022-10-12T02:30:03.159Z,1.93
2022-10-12T02:35:02.763Z,1.7
2022-10-12T02:40:02.694Z,0.86
2022-10-12T02:45:03.213Z,0.76
2022-10-12T02:50:02.974Z,0.52
2022-10-12T02:55:04.009Z,0.51
2022-10-12T03:00:03.330Z,0.57
2022-10-12T03:05:02.955Z,0.88
2022-10-12T03:10:02.559Z,0.91
2022-10-12T03:15:03.348Z,0.88
2022-10-12T03:20:03.001Z,0.49
2022-10-12T03:25:02.607Z,0.32
2022-10-12T03:30:02.472Z,0.45
2022-10-12T03:35:03.159Z,0.43
2022-10-12T03:40:03.018Z,0.59
2022-10-12T03:45:02.853Z,0.48
2022-10-12T03:50:02.428Z,0.24
2022-10-12T03:55:04.344Z,0.11
2022-10-12T04:00:02.970Z,0.06
2022-10-12T04:05:02.779Z,0.18
2022-10-12T04:10:02.435Z,0.03
2022-10-12T04:15:03.109Z,0.13
2022-10-12T04:20:02.858Z,0.08
2022-10-12T04:25:02.782Z,0.28
2022-10-12T04:30:02.684Z,0.24
2022-10-12T04:35:03.169Z,0.22
2022-10-12T04:40:02.913Z,0.21
2022-10-12T04:45:02.685Z,0.11
2022-10-12T04:50:03.300Z,-0.24
2022-10-12T05:00:02.536Z,0.35
2022-10-12T05:05:03.214Z,0.31
2022-10-12T05:10:02.892Z,0.09
2022-10-12T05:15:02.605Z,-0.21
2022-10-12T05:20:03.313Z,-0.18
2022-10-12T05:25:02.997Z,0.52
2022-10-12T05:30:02.802Z,0.9
2022-10-12T05:35:02.471Z,0.72
2022-10-12T05:40:03.277Z,1.15
2022-10-12T05:45:03.025Z,1.48
2022-10-12T05:50:02.773Z,1.65
2022-10-12T05:55:03.913Z,1.68
2022-10-12T06:00:03.104Z,1.69
2022-10-12T06:05:02.685Z,1.85
2022-10-12T06:10:02.391Z,1.94
2022-10-12T06:15:03.073Z,2.04
2022-10-12T06:20:02.767Z,2.24
2022-10-12T06:25:02.730Z,2.74
2022-10-12T06:30:03.137Z,3.06
2022-10-12T06:35:02.694Z,3.56
2022-10-12T06:40:02.352Z,4.26
2022-10-12T06:45:03.084Z,4.32
2022-10-12T06:50:02.657Z,4.69
2022-10-12T06:55:03.547Z,4.9
2022-10-12T07:00:03.007Z,5.63
2022-10-12T07:05:02.666Z,6.32
2022-10-12T07:10:02.367Z,6.85
2022-10-12T07:15:03.041Z,7.49
2022-10-12T07:20:02.743Z,6.77
2022-10-12T07:25:02.354Z,7.12
2022-10-12T07:30:03.057Z,7.54
2022-10-12T07:35:02.965Z,7.98
2022-10-12T07:40:02.766Z,9.4
2022-10-12T07:45:03.277Z,10.1
2022-10-12T07:50:02.868Z,9.74
2022-10-12T07:55:03.653Z,10.81
2022-10-12T08:00:03.292Z,10.58
2022-10-12T08:05:02.895Z,12.15
2022-10-12T08:10:02.546Z,12.31
2022-10-12T08:15:03.064Z,13.36
2022-10-12T08:20:02.684Z,13.22
2022-10-12T08:25:03.314Z,12.76
2022-10-12T08:30:02.999Z,13.25
2022-10-12T08:35:02.578Z,12.95
2022-10-12T08:40:04.351Z,13.86
2022-10-12T08:45:03.145Z,13.8
2022-10-12T08:50:02.706Z,13.42
2022-10-12T08:55:04.040Z,12.47
2022-10-12T09:00:03.166Z,13.14
2022-10-12T09:05:02.768Z,14.92
2022-10-12T09:10:02.427Z,15.61
2022-10-12T09:15:03.122Z,15.36
2022-10-12T09:20:02.788Z,15.78
2022-10-12T09:25:02.657Z,16.12
2022-10-12T09:30:03.384Z,16.06
2022-10-12T09:35:02.991Z,16.32
2022-10-12T09:40:02.640Z,16.44
2022-10-12T09:45:03.356Z,16.21
2022-10-12T09:50:02.944Z,16.64
2022-10-12T09:55:06.359Z,17.1
2022-10-12T10:00:03.341Z,17.36
2022-10-12T10:05:02.892Z,16.85
2022-10-12T10:10:02.593Z,16.93
2022-10-12T10:15:03.207Z,16.45
2022-10-12T10:20:02.855Z,17.32
2022-10-12T10:25:02.484Z,17.11
2022-10-12T10:30:32.043Z,17.35
2022-10-12T10:35:02.845Z,17.35
2022-10-12T10:40:02.451Z,17.32
2022-10-12T10:45:03.126Z,17.73
2022-10-12T10:50:02.709Z,17.6
2022-10-12T10:55:04.407Z,17.11
2022-10-12T11:00:39.469Z,17.37
2022-10-12T11:05:03.085Z,18.78
2022-10-12T11:10:02.667Z,18
2022-10-12T11:15:02.466Z,18.38
2022-10-12T11:20:03.391Z,18.18
2022-10-12T11:25:02.743Z,17.98
2022-10-12T11:30:10.023Z,17.9
2022-10-12T11:35:02.935Z,17.75
2022-10-12T11:40:02.575Z,18.43
2022-10-12T11:45:03.375Z,18.52
2022-10-12T11:50:03.049Z,17.64
2022-10-12T11:55:04.012Z,18.37
2022-10-12T12:00:03.337Z,18.06
2022-10-12T12:05:02.942Z,17.86
2022-10-12T12:10:02.570Z,18.62
2022-10-12T12:15:03.263Z,18.51
2022-10-12T12:20:02.904Z,18.29
2022-10-12T12:25:02.537Z,18.14
2022-10-12T12:30:03.220Z,18.47
2022-10-12T12:35:02.897Z,18.51
2022-10-12T12:40:02.541Z,18.21
2022-10-12T12:45:03.084Z,18.96
2022-10-12T12:50:02.727Z,19.41
2022-10-12T12:55:04.504Z,18.59
2022-10-12T13:00:03.097Z,19
2022-10-12T13:05:02.720Z,19.27
2022-10-12T13:10:02.554Z,18.48
2022-10-12T13:15:03.053Z,19.04
2022-10-12T13:20:02.698Z,19.81
2022-10-12T13:25:03.339Z,19.46
2022-10-12T13:30:03.028Z,19.44
2022-10-12T13:35:02.591Z,18.76
2022-10-12T13:40:03.247Z,19.3
2022-10-12T13:45:03.322Z,19.42
2022-10-12T13:50:02.660Z,19.56
2022-10-12T14:00:02.862Z,19.7
2022-10-12T14:05:02.647Z,18.48
2022-10-12T14:10:03.301Z,19.97
2022-10-12T14:15:02.896Z,19.88
2022-10-12T14:20:02.566Z,19.76
2022-10-12T14:25:03.168Z,19.11
2022-10-12T14:30:02.845Z,19.65
2022-10-12T14:35:02.563Z,19.11
2022-10-12T14:40:03.115Z,18.75
2022-10-12T14:45:02.707Z,18.75
2022-10-12T14:50:03.280Z,18.5
2022-10-12T14:55:04.412Z,19.13
2022-10-12T15:00:02.570Z,18.58
2022-10-12T15:05:03.284Z,18.44
2022-10-12T15:10:02.991Z,18.82
2022-10-12T15:15:02.654Z,19.27
2022-10-12T15:20:03.315Z,18.42
2022-10-12T15:25:03.231Z,18.09
2022-10-12T15:30:02.870Z,17.59
2022-10-12T15:35:02.515Z,17.34
2022-10-12T15:40:03.176Z,16.62
2022-10-12T15:45:02.914Z,16.37
2022-10-12T15:50:02.536Z,15.65
2022-10-12T15:55:04.477Z,15.2
2022-10-12T16:00:02.908Z,14.85
2022-10-12T16:05:02.672Z,14.49
2022-10-12T16:10:02.374Z,14.19
2022-10-12T16:15:03.020Z,13.9
2022-10-12T16:20:03.027Z,13.73
2022-10-12T16:25:02.349Z,13.3
2022-10-12T16:30:03.070Z,13.06
2022-10-12T16:35:02.775Z,12.86
2022-10-12T16:40:02.390Z,12.49
2022-10-12T16:45:03.065Z,12.48
2022-10-12T16:50:02.672Z,12.51
2022-10-12T16:55:04.650Z,12.35
2022-10-12T17:00:03.994Z,12.13
2022-10-12T17:05:02.582Z,11.93
2022-10-12T17:10:03.221Z,11.51
2022-10-12T17:15:02.886Z,10.94
2022-10-12T17:25:03.264Z,10.78
2022-10-12T17:30:02.936Z,10.28
2022-10-12T17:35:02.652Z,10.33
2022-10-12T17:40:03.304Z,10.56
2022-10-12T17:45:03.329Z,10.58
2022-10-12T17:50:02.928Z,10.54
2022-10-12T17:55:04.010Z,10.6
2022-10-12T18:00:02.549Z,10.47
2022-10-12T18:05:03.178Z,10.31
2022-10-12T18:10:02.834Z,10.19
2022-10-12T18:15:02.608Z,10.26
2022-10-12T18:20:03.250Z,10.16
2022-10-12T18:25:03.124Z,9.91
2022-10-12T18:30:03.008Z,9.6
2022-10-12T18:35:02.593Z,9.72
2022-10-12T18:40:03.527Z,9.74
2022-10-12T18:45:02.938Z,9.67
2022-10-12T18:50:02.404Z,9.41
2022-10-12T18:55:04.349Z,9.51
2022-10-12T19:00:02.751Z,9.37
2022-10-12T19:05:02.369Z,9.48
2022-10-12T19:10:03.043Z,9.74
2022-10-12T19:15:02.703Z,9.95
2022-10-12T19:20:02.349Z,9.78
2022-10-12T19:25:02.991Z,9.55
2022-10-12T19:30:02.652Z,9.36
2022-10-12T19:35:03.251Z,9.31
2022-10-12T19:40:07.889Z,9.18
2022-10-12T19:45:02.608Z,8.82
2022-10-12T19:50:02.421Z,8.48
2022-10-12T19:55:04.362Z,8.15
2022-10-12T20:00:02.531Z,8.02
2022-10-12T20:05:02.558Z,8.3
2022-10-12T20:10:02.390Z,8.41
2022-10-12T20:15:03.114Z,8.31
2022-10-12T20:20:02.775Z,7.85
2022-10-12T20:25:09.981Z,7.19
2022-10-12T20:30:02.769Z,6.56
2022-10-12T20:35:02.389Z,6.44
2022-10-12T20:40:03.052Z,6.44
2022-10-12T20:45:02.690Z,6.46
2022-10-12T20:50:02.214Z,7.34
2022-10-12T20:55:04.632Z,7.67
2022-10-12T21:00:02.913Z,7.32
2022-10-12T21:05:02.578Z,6.71
2022-10-12T21:10:03.269Z,6.28
2022-10-12T21:15:02.954Z,6.14
2022-10-12T21:20:02.740Z,5.75
2022-10-12T21:25:02.350Z,6
2022-10-12T21:30:03.131Z,6.35
2022-10-12T21:35:02.591Z,6.76
2022-10-12T21:40:03.393Z,6.9
2022-10-12T21:45:03.071Z,6.88
2022-10-12T21:50:02.663Z,7.24
2022-10-12T21:55:03.640Z,7.02
2022-10-12T22:00:03.361Z,6.91
2022-10-12T22:05:02.972Z,6.65
2022-10-12T22:10:02.840Z,6.75
2022-10-12T22:15:02.510Z,7.28
2022-10-12T22:20:03.142Z,7.24
2022-10-12T22:25:02.776Z,7.04
2022-10-12T22:30:02.601Z,7.38
2022-10-12T22:35:03.310Z,7.53
2022-10-12T22:40:02.825Z,7.41
2022-10-12T22:45:02.596Z,7.23
2022-10-12T22:50:03.187Z,7.1
2022-10-12T22:55:04.042Z,7.04
2022-10-12T23:00:02.819Z,7.05
2022-10-12T23:05:03.291Z,6.84
2022-10-12T23:10:02.931Z,6.31
2022-10-12T23:15:02.989Z,6.06
2022-10-12T23:20:02.349Z,6.4
2022-10-12T23:25:02.987Z,6.58
2022-10-12T23:30:02.671Z,6.6
2022-10-12T23:35:02.413Z,6.65
2022-10-12T23:40:02.939Z,6.78
2022-10-12T23:45:02.586Z,6.86
2022-10-12T23:50:03.340Z,6.7
2022-10-12T23:55:04.529Z,6.66
